Kendallville, Indiana
Current Conditions -  °F | °C
As of 9:55 PM on Tuesday 21 Oct 2014 (Local Time) from KGWB Reporting Station
Clear Clear  
Wind Chill: 43°   Ceiling: Unl
Heat Index: 43°   Visibility: 10mi
Dew Point: 34°   Wind: 3mph
Humidity: 70%   Direction: 360°N
Pressure: 30.22"   Gusts: NA
Location:  41.44°N, 85.26°W
Report Text: KGWB 220155Z AUTO 36003KT 10SM CLR 06/01 A3022 RMK AO2
Loading
Personal Weather Stations






























Interactive Weather Map
Tropical Storm Tracking
New forecast layout! Learn more

10-Day Weather Forecast

Advertisements
Track Severe Weather on mobile